Time;durP1;ratioP1;P1;durP2;ratioP2;P2;SDS_P1;SDS_P2;PMS_P1;PMS_P2;Temp;Humidity;BMP_temperature;BMP_pressure;BME280_temperature;BME280_humidity;BME280_pressure;Samples;Min_cycle;Max_cycle;Signal;HPM_P1;HPM_P2
2022/11/10 00:00:17;;;;;;;9.75;3.10;;;12.10;99.90;;;;;;5028432;28;20044;-45
2022/11/10 00:02:42;;;;;;;8.90;3.05;;;12.10;99.90;;;;;;5023623;28;20078;-46
2022/11/10 00:05:13;;;;;;;8.98;2.83;;;12.10;99.90;;;;;;5061677;28;20014;-46
2022/11/10 00:07:39;;;;;;;10.18;4.30;;;12.00;99.90;;;;;;5027089;28;20022;-47
2022/11/10 00:10:05;;;;;;;12.00;3.30;;;12.00;99.90;;;;;;5028677;28;20021;-46
2022/11/10 00:12:31;;;;;;;9.25;2.85;;;12.00;99.90;;;;;;5028181;28;20072;-46
2022/11/10 00:17:41;;;;;;;15.77;3.50;;;12.00;99.90;;;;;;5052639;28;20049;-45
2022/11/10 00:20:08;;;;;;;8.63;3.10;;;12.00;99.90;;;;;;5035118;28;20025;-45
2022/11/10 00:22:35;;;;;;;6.55;3.08;;;12.00;99.90;;;;;;5028017;28;20021;-46
2022/11/10 00:25:01;;;;;;;13.00;3.80;;;12.00;99.90;;;;;;5028459;28;20287;-46
2022/11/10 00:27:26;;;;;;;9.23;3.08;;;12.00;99.90;;;;;;5027413;28;20030;-46
2022/11/10 00:29:52;;;;;;;10.57;3.53;;;12.00;99.90;;;;;;5028649;28;20036;-46
2022/11/10 00:32:18;;;;;;;8.70;3.25;;;12.00;99.90;;;;;;5027912;28;20029;-46
2022/11/10 00:34:43;;;;;;;10.48;3.17;;;11.90;99.90;;;;;;5027012;28;20037;-45
2022/11/10 00:37:09;;;;;;;11.73;3.78;;;12.00;99.90;;;;;;5028371;28;20417;-46
2022/11/10 00:39:35;;;;;;;7.82;3.47;;;12.00;99.90;;;;;;5028244;28;20030;-45
2022/11/10 00:42:01;;;;;;;10.00;3.28;;;12.00;99.90;;;;;;5026742;28;20022;-48
2022/11/10 00:44:27;;;;;;;8.00;3.17;;;11.90;99.90;;;;;;5026823;28;20385;-47
2022/11/10 00:46:53;;;;;;;10.90;3.13;;;11.90;99.90;;;;;;5062360;28;20014;-49
2022/11/10 00:49:21;;;;;;;10.07;3.20;;;11.90;99.90;;;;;;5028083;28;20462;-46
2022/11/10 00:51:47;;;;;;;10.38;3.55;;;11.90;99.90;;;;;;5027251;28;20026;-47
2022/11/10 00:54:13;;;;;;;13.43;3.33;;;11.90;99.90;;;;;;5026534;28;20026;-46
2022/11/10 00:56:38;;;;;;;11.15;3.22;;;11.90;99.90;;;;;;5026506;28;20051;-47
2022/11/10 00:59:04;;;;;;;8.90;3.38;;;11.90;99.90;;;;;;5027904;28;20030;-47
2022/11/10 01:01:30;;;;;;;7.93;3.50;;;11.90;99.90;;;;;;5026911;28;20034;-49
2022/11/10 01:03:56;;;;;;;11.38;4.30;;;11.90;99.90;;;;;;5026610;28;20029;-46
2022/11/10 01:06:22;;;;;;;9.52;3.10;;;11.90;99.90;;;;;;5026742;28;20135;-46
2022/11/10 01:08:47;;;;;;;9.88;3.70;;;11.90;99.90;;;;;;5026756;28;20032;-46
2022/11/10 01:11:22;;;;;;;12.52;3.30;;;11.90;99.90;;;;;;5027513;28;20029;-45
2022/11/10 01:13:50;;;;;;;11.13;5.07;;;11.80;99.90;;;;;;5027538;28;20032;-48
2022/11/10 01:16:19;;;;;;;10.90;3.42;;;11.80;99.90;;;;;;5056500;28;20032;-48
2022/11/10 01:18:52;;;;;;;9.98;3.22;;;11.80;99.90;;;;;;5045437;28;20023;-47
2022/11/10 01:21:18;;;;;;;11.88;3.55;;;11.80;99.90;;;;;;5029342;28;20021;-47
2022/11/10 01:23:44;;;;;;;12.35;3.60;;;11.80;99.90;;;;;;5027319;28;20053;-47
2022/11/10 01:26:09;;;;;;;15.63;3.97;;;11.80;99.90;;;;;;5027344;28;20161;-47
2022/11/10 01:28:36;;;;;;;14.60;4.25;;;11.80;99.90;;;;;;5021691;28;20036;-47
2022/11/10 01:31:05;;;;;;;10.80;3.72;;;11.80;99.90;;;;;;5061808;28;20018;-48
2022/11/10 01:33:32;;;;;;;13.35;4.18;;;11.80;99.90;;;;;;5026971;28;20102;-48
2022/11/10 01:35:58;;;;;;;15.35;3.58;;;11.80;99.90;;;;;;5027330;28;20030;-50
2022/11/10 01:38:27;;;;;;;8.23;3.20;;;11.80;99.90;;;;;;5026042;28;20018;-49
2022/11/10 01:40:53;;;;;;;16.45;4.20;;;11.80;99.90;;;;;;5025836;28;20285;-47
2022/11/10 01:43:19;;;;;;;8.25;3.20;;;11.90;99.90;;;;;;5025092;28;20018;-48
2022/11/10 01:45:55;;;;;;;14.45;3.83;;;11.80;99.90;;;;;;5025922;28;20430;-47
2022/11/10 01:48:28;;;;;;;9.55;3.03;;;11.80;99.90;;;;;;5027153;28;20025;-47
2022/11/10 01:50:55;;;;;;;8.43;3.60;;;11.80;99.90;;;;;;5027117;28;20026;-47
2022/11/10 01:53:26;;;;;;;14.18;3.65;;;11.80;99.90;;;;;;5025247;28;20073;-46
2022/11/10 01:55:53;;;;;;;12.25;3.55;;;11.90;99.90;;;;;;5027068;28;20556;-49
2022/11/10 01:58:24;;;;;;;12.88;3.83;;;11.80;99.90;;;;;;5022356;28;20021;-47
2022/11/10 02:00:50;;;;;;;14.07;4.65;;;11.80;99.90;;;;;;5061641;28;20028;-46
2022/11/10 02:03:33;;;;;;;10.30;3.45;;;11.70;99.90;;;;;;5025894;28;20026;-48
2022/11/10 02:06:00;;;;;;;12.35;3.85;;;11.80;99.90;;;;;;5026796;28;20026;-47
2022/11/10 02:08:26;;;;;;;10.50;3.95;;;11.70;99.90;;;;;;5027021;28;20478;-46
2022/11/10 02:10:52;;;;;;;13.00;4.20;;;11.70;99.90;;;;;;5026913;28;20537;-46
2022/11/10 02:13:18;;;;;;;9.13;3.40;;;11.70;99.90;;;;;;5026370;28;20029;-47
2022/11/10 02:15:44;;;;;;;16.40;4.38;;;11.60;99.90;;;;;;5026860;28;20030;-46
2022/11/10 02:18:10;;;;;;;10.95;3.70;;;11.60;99.90;;;;;;5027273;28;20037;-46
2022/11/10 02:20:35;;;;;;;13.13;4.97;;;11.50;99.90;;;;;;5052922;28;20072;-46
2022/11/10 02:23:29;;;;;;;9.65;4.00;;;11.50;99.90;;;;;;5024682;28;20423;-47
2022/11/10 02:25:56;;;;;;;13.25;4.57;;;11.50;99.90;;;;;;5019166;28;20030;-48
2022/11/10 02:28:22;;;;;;;11.55;3.88;;;11.40;99.90;;;;;;4996080;28;20022;-46
2022/11/10 02:30:48;;;;;;;10.00;3.88;;;11.30;99.90;;;;;;4998063;28;20130;-47
2022/11/10 02:33:16;;;;;;;8.95;4.03;;;11.30;99.90;;;;;;4998044;28;20063;-48
2022/11/10 02:35:45;;;;;;;16.98;4.15;;;11.30;99.90;;;;;;5007039;28;20045;-46
2022/11/10 02:38:11;;;;;;;12.48;4.80;;;11.30;99.90;;;;;;5006822;28;20051;-47
2022/11/10 02:40:37;;;;;;;15.43;5.35;;;11.20;99.90;;;;;;5005593;28;20034;-46
2022/11/10 02:43:09;;;;;;;13.18;5.07;;;11.20;99.90;;;;;;5004897;28;20032;-47
2022/11/10 02:45:40;;;;;;;18.35;5.00;;;11.10;99.90;;;;;;5006423;28;20060;-49
2022/11/10 02:48:06;;;;;;;11.20;5.30;;;11.20;99.90;;;;;;5015382;28;20018;-46
2022/11/10 02:50:32;;;;;;;14.40;5.93;;;11.20;99.90;;;;;;5054294;28;20108;-46
2022/11/10 02:52:58;;;;;;;19.33;5.85;;;11.10;99.90;;;;;;5025837;28;20108;-46
2022/11/10 02:55:23;;;;;;;15.27;6.18;;;11.10;99.90;;;;;;5025121;28;20736;-46
2022/11/10 02:57:49;;;;;;;10.73;5.53;;;11.10;99.90;;;;;;5022423;28;20077;-46
2022/11/10 03:00:15;;;;;;;20.15;5.97;;;11.00;99.90;;;;;;5005065;28;20374;-46
2022/11/10 03:02:41;;;;;;;12.57;6.05;;;11.00;99.90;;;;;;5005906;28;20033;-45
2022/11/10 03:05:07;;;;;;;11.75;5.30;;;11.00;99.90;;;;;;5006112;28;20026;-49
2022/11/10 03:07:33;;;;;;;18.63;6.63;;;10.90;99.90;;;;;;5006277;28;20390;-47
2022/11/10 03:09:58;;;;;;;19.88;7.22;;;10.90;99.90;;;;;;5054487;28;20449;-46
2022/11/10 03:12:23;;;;;;;13.80;7.53;;;10.80;99.90;;;;;;5025581;28;20454;-45
2022/11/10 03:14:49;;;;;;;15.40;5.38;;;10.80;99.90;;;;;;5025623;28;20032;-46
2022/11/10 03:17:15;;;;;;;15.27;6.22;;;10.80;99.90;;;;;;5021281;28;20038;-47
2022/11/10 03:19:41;;;;;;;13.60;5.95;;;10.80;99.90;;;;;;5058398;28;20026;-49
2022/11/10 03:22:07;;;;;;;16.48;6.28;;;10.70;99.90;;;;;;5024089;28;20171;-47
2022/11/10 03:24:33;;;;;;;11.68;5.90;;;10.70;99.90;;;;;;5020637;28;20158;-45
2022/11/10 03:26:58;;;;;;;15.98;6.60;;;10.60;99.90;;;;;;5057102;28;20471;-46
2022/11/10 03:29:24;;;;;;;14.45;6.65;;;10.60;99.90;;;;;;5025362;28;20029;-47
2022/11/10 03:31:50;;;;;;;10.60;5.80;;;10.70;99.90;;;;;;5025157;28;20032;-46
2022/11/10 03:34:15;;;;;;;16.55;6.80;;;10.60;99.90;;;;;;5025584;28;20314;-49
2022/11/10 03:36:42;;;;;;;17.50;5.68;;;10.60;99.90;;;;;;5025949;28;20061;-47
2022/11/10 03:39:08;;;;;;;12.63;6.13;;;10.60;99.90;;;;;;5024056;28;20021;-46
2022/11/10 03:41:33;;;;;;;17.23;7.32;;;10.50;99.90;;;;;;5024915;28;20548;-49
2022/11/10 03:43:59;;;;;;;12.93;7.55;;;10.50;99.90;;;;;;5025311;28;20071;-46
2022/11/10 03:46:24;;;;;;;18.50;7.20;;;10.50;99.90;;;;;;5025416;28;20026;-48
2022/11/10 03:48:52;;;;;;;16.55;6.45;;;10.50;99.90;;;;;;5023770;28;20036;-46
2022/11/10 03:51:19;;;;;;;19.50;6.43;;;10.50;99.90;;;;;;5025187;28;20035;-46
2022/11/10 03:53:44;;;;;;;17.52;7.05;;;10.40;99.90;;;;;;5016560;28;20053;-47
2022/11/10 03:56:11;;;;;;;13.65;6.15;;;10.50;99.90;;;;;;5055141;28;20464;-47
2022/11/10 03:58:37;;;;;;;16.88;6.60;;;10.50;99.90;;;;;;5023803;28;20371;-47
2022/11/10 04:01:03;;;;;;;14.70;6.43;;;10.40;99.90;;;;;;5025435;28;20036;-48
2022/11/10 04:03:28;;;;;;;22.65;8.02;;;10.40;99.90;;;;;;5010546;28;20021;-48
2022/11/10 04:16:51;;;;;;;20.73;7.90;;;10.30;99.90;;;;;;4998117;28;20401;-50
2022/11/10 04:19:16;;;;;;;19.10;7.43;;;10.30;99.90;;;;;;5003411;28;20025;-48
2022/11/10 04:21:42;;;;;;;15.07;6.60;;;10.30;99.90;;;;;;4995082;28;20039;-47
2022/11/10 04:24:07;;;;;;;8.93;5.57;;;10.30;99.90;;;;;;4993568;28;20022;-48
2022/11/10 04:26:37;;;;;;;17.70;7.20;;;10.30;99.90;;;;;;4987703;28;20479;-47
2022/11/10 04:29:07;;;;;;;15.77;6.93;;;10.20;99.90;;;;;;4994088;28;20029;-49
2022/11/10 04:31:36;;;;;;;25.88;7.32;;;10.20;99.90;;;;;;4997747;28;20040;-48
2022/11/10 04:34:03;;;;;;;22.77;8.10;;;10.20;99.90;;;;;;5004643;28;20050;-47
2022/11/10 04:36:30;;;;;;;17.75;8.00;;;10.20;99.90;;;;;;5004879;28;20021;-47
2022/11/10 04:38:56;;;;;;;14.70;6.90;;;10.20;99.90;;;;;;4994590;28;20071;-47
2022/11/10 04:41:23;;;;;;;15.13;7.00;;;10.20;99.90;;;;;;4990818;28;20018;-47
2022/11/10 04:43:51;;;;;;;18.05;8.00;;;10.20;99.90;;;;;;4991223;28;20063;-47
2022/11/10 04:46:23;;;;;;;13.80;6.00;;;10.10;99.90;;;;;;4995992;28;20056;-49
2022/11/10 04:48:48;;;;;;;18.75;7.35;;;10.10;99.90;;;;;;4997465;28;20078;-47
2022/11/10 04:51:15;;;;;;;14.55;7.38;;;10.10;99.90;;;;;;4997041;28;20165;-47
2022/11/10 04:53:40;;;;;;;17.38;6.85;;;10.00;99.90;;;;;;4994144;28;20038;-47
2022/11/10 04:56:06;;;;;;;23.98;9.05;;;10.10;99.90;;;;;;4997546;28;20405;-46
2022/11/10 04:58:32;;;;;;;17.67;7.32;;;10.10;99.90;;;;;;4991515;28;20052;-46
2022/11/10 05:00:58;;;;;;;24.50;8.25;;;10.10;99.90;;;;;;4995079;28;20071;-47
2022/11/10 05:03:25;;;;;;;21.88;8.70;;;10.00;99.90;;;;;;4991086;28;20050;-46
2022/11/10 05:05:51;;;;;;;20.33;8.20;;;10.00;99.90;;;;;;4989121;28;20037;-47
2022/11/10 05:08:16;;;;;;;24.00;9.13;;;10.00;99.90;;;;;;4993890;28;20034;-45
2022/11/10 05:10:42;;;;;;;19.58;8.70;;;10.00;99.90;;;;;;4996926;28;20048;-45
2022/11/10 05:13:09;;;;;;;26.60;9.23;;;10.00;99.90;;;;;;4998757;28;20279;-45
2022/11/10 05:15:35;;;;;;;18.42;8.20;;;10.00;99.90;;;;;;4993948;28;20150;-45
2022/11/10 05:18:00;;;;;;;20.02;8.73;;;10.00;99.90;;;;;;5005552;28;20027;-44
2022/11/10 05:20:26;;;;;;;17.52;8.85;;;9.90;99.90;;;;;;5002485;28;20038;-45
2022/11/10 05:25:38;;;;;;;23.83;9.43;;;9.90;99.90;;;;;;5011276;28;20032;-45
2022/11/10 05:28:05;;;;;;;16.83;9.27;;;9.90;99.90;;;;;;5062099;28;20018;-44
2022/11/10 05:30:31;;;;;;;18.25;8.48;;;9.90;99.90;;;;;;5023586;28;20070;-45
2022/11/10 05:32:57;;;;;;;26.73;9.48;;;9.90;99.90;;;;;;5061564;28;20022;-45
2022/11/10 05:35:24;;;;;;;23.23;10.00;;;9.90;99.90;;;;;;5027435;28;20496;-44
2022/11/10 05:37:50;;;;;;;20.80;9.68;;;9.90;99.90;;;;;;5003168;28;20038;-45
2022/11/10 05:40:17;;;;;;;28.70;10.65;;;9.90;99.90;;;;;;4986648;28;20046;-44
2022/11/10 05:42:47;;;;;;;16.90;9.52;;;10.00;99.90;;;;;;4987807;28;20026;-45
2022/11/10 05:45:14;;;;;;;22.73;9.82;;;9.90;99.90;;;;;;4987780;28;20019;-44
2022/11/10 05:47:40;;;;;;;21.80;9.05;;;9.90;99.90;;;;;;4971064;28;20471;-45
2022/11/10 05:50:07;;;;;;;19.70;8.90;;;9.90;99.90;;;;;;4986787;28;20070;-44
2022/11/10 05:52:33;;;;;;;18.75;10.00;;;9.90;99.90;;;;;;4986054;28;20030;-45
2022/11/10 05:54:59;;;;;;;14.85;9.35;;;9.90;99.90;;;;;;4987773;28;20530;-44
2022/11/10 05:57:24;;;;;;;25.40;10.18;;;9.90;99.90;;;;;;4987761;28;20042;-44
2022/11/10 05:59:50;;;;;;;31.02;10.05;;;9.90;99.90;;;;;;4987683;28;20049;-44
2022/11/10 06:02:16;;;;;;;29.50;10.80;;;9.90;99.90;;;;;;5019828;28;20020;-44
2022/11/10 06:04:41;;;;;;;24.58;9.85;;;9.90;99.90;;;;;;5110838;28;20070;-45
2022/11/10 06:07:07;;;;;;;23.98;9.25;;;9.90;99.90;;;;;;5111418;28;20024;-45
2022/11/10 06:09:34;;;;;;;27.13;11.30;;;9.90;99.90;;;;;;5110334;28;20024;-45
2022/11/10 06:12:00;;;;;;;23.60;9.80;;;9.90;99.90;;;;;;5109823;28;20396;-45
2022/11/10 06:14:26;;;;;;;20.48;9.52;;;9.90;99.90;;;;;;5110170;28;20480;-45
2022/11/10 06:16:51;;;;;;;25.83;10.43;;;9.90;99.90;;;;;;5060815;28;20054;-48
2022/11/10 06:19:17;;;;;;;21.13;9.75;;;9.90;99.90;;;;;;5027589;28;20059;-46
2022/11/10 06:21:43;;;;;;;34.25;10.20;;;9.90;99.90;;;;;;5025344;28;20023;-45
2022/11/10 06:24:09;;;;;;;21.63;10.20;;;9.90;99.90;;;;;;5026944;28;20021;-45
2022/11/10 06:26:35;;;;;;;22.48;9.32;;;9.90;99.90;;;;;;5042729;28;20068;-45
2022/11/10 06:29:00;;;;;;;20.25;9.32;;;10.00;99.90;;;;;;5039069;28;20034;-44
2022/11/10 06:31:27;;;;;;;21.25;10.05;;;10.00;99.90;;;;;;5026438;28;20129;-44
2022/11/10 06:33:52;;;;;;;26.83;10.90;;;10.00;99.90;;;;;;5025370;28;20025;-48
2022/11/10 06:36:18;;;;;;;26.33;10.05;;;10.00;99.90;;;;;;5026745;28;20370;-45
2022/11/10 06:38:44;;;;;;;17.35;8.82;;;10.00;99.90;;;;;;5026767;28;20104;-49
2022/11/10 06:41:09;;;;;;;16.02;9.82;;;10.10;99.90;;;;;;5026768;28;20050;-45
2022/11/10 06:43:35;;;;;;;20.60;10.05;;;10.10;99.90;;;;;;5026611;28;20033;-45
2022/11/10 06:46:01;;;;;;;22.30;9.82;;;10.20;99.90;;;;;;5026719;28;20097;-50
2022/11/10 06:48:26;;;;;;;19.63;8.65;;;10.30;99.90;;;;;;5026445;28;20336;-45
2022/11/10 06:50:52;;;;;;;25.85;9.60;;;10.30;99.90;;;;;;5024769;28;20108;-45
2022/11/10 06:53:17;;;;;;;26.35;8.35;;;10.30;99.90;;;;;;5024879;28;20026;-44
2022/11/10 06:55:43;;;;;;;20.90;9.38;;;10.30;99.90;;;;;;5017718;28;20025;-45
2022/11/10 06:58:09;;;;;;;26.02;9.65;;;10.40;99.90;;;;;;5060998;28;20026;-45
2022/11/10 07:00:35;;;;;;;19.98;8.40;;;10.40;99.90;;;;;;5026468;28;20025;-44
2022/11/10 07:03:03;;;;;;;20.98;9.23;;;10.40;99.90;;;;;;5012847;28;20037;-45
2022/11/10 07:05:29;;;;;;;25.38;9.25;;;10.40;99.90;;;;;;5059435;28;20017;-44
2022/11/10 07:07:55;;;;;;;21.75;9.20;;;10.40;99.90;;;;;;5020299;28;20018;-44
2022/11/10 07:10:20;;;;;;;23.70;9.40;;;10.40;99.90;;;;;;5093606;28;20039;-43
2022/11/10 07:12:46;;;;;;;24.90;8.77;;;10.40;99.90;;;;;;5109332;28;20032;-44
2022/11/10 07:15:12;;;;;;;28.73;8.40;;;10.40;99.90;;;;;;5062503;28;20044;-44
2022/11/10 07:17:41;;;;;;;29.35;9.65;;;10.50;99.90;;;;;;5050522;28;20029;-44
2022/11/10 07:20:07;;;;;;;27.90;9.45;;;10.50;99.90;;;;;;5026302;28;20045;-44
2022/11/10 07:22:33;;;;;;;23.40;8.48;;;10.50;99.90;;;;;;5017139;28;20036;-44
2022/11/10 07:24:59;;;;;;;16.08;8.30;;;10.60;99.90;;;;;;5062215;28;20015;-44
2022/11/10 07:27:24;;;;;;;17.33;7.28;;;10.60;99.90;;;;;;5109805;28;20031;-43
2022/11/10 07:29:50;;;;;;;26.13;8.25;;;10.70;99.90;;;;;;5107966;28;20107;-44
2022/11/10 07:32:15;;;;;;;30.80;9.38;;;10.70;99.90;;;;;;5107589;28;20038;-44
2022/11/10 07:34:41;;;;;;;18.08;7.57;;;10.70;99.90;;;;;;5109459;28;20111;-44
2022/11/10 07:37:08;;;;;;;17.58;7.88;;;10.80;99.90;;;;;;5110220;28;20020;-44
2022/11/10 07:39:33;;;;;;;18.52;7.78;;;10.80;99.90;;;;;;5109430;28;20046;-43
2022/11/10 07:41:59;;;;;;;17.98;7.95;;;10.80;99.90;;;;;;5108141;28;20019;-44
2022/11/10 07:44:26;;;;;;;17.92;7.95;;;10.80;99.90;;;;;;5011335;28;20052;-45
2022/11/10 07:46:52;;;;;;;24.65;9.10;;;11.00;99.90;;;;;;4991895;28;20389;-45
2022/11/10 07:49:17;;;;;;;18.80;7.28;;;11.10;99.90;;;;;;5003300;28;20109;-45
2022/11/10 07:51:43;;;;;;;21.30;9.32;;;11.30;99.90;;;;;;4995745;28;20022;-45
2022/11/10 07:54:09;;;;;;;21.42;7.57;;;11.40;99.90;;;;;;5012447;28;20029;-45
2022/11/10 07:56:35;;;;;;;19.30;6.35;;;11.40;99.90;;;;;;4991531;28;20053;-46
2022/11/10 07:59:00;;;;;;;23.42;7.47;;;11.50;99.90;;;;;;4984947;28;20019;-45
2022/11/10 08:01:26;;;;;;;12.20;6.55;;;11.60;99.90;;;;;;4996447;28;20355;-45
2022/11/10 08:03:54;;;;;;;21.58;6.72;;;11.60;99.90;;;;;;4997874;28;20379;-46
2022/11/10 08:06:20;;;;;;;24.83;6.82;;;11.60;99.90;;;;;;4995377;28;20472;-45
2022/11/10 08:08:46;;;;;;;17.00;6.40;;;11.50;99.90;;;;;;4998467;28;20030;-45
2022/11/10 08:11:12;;;;;;;20.30;7.22;;;11.40;99.90;;;;;;4993702;28;20033;-45
2022/11/10 08:13:38;;;;;;;22.75;7.38;;;11.40;99.90;;;;;;4999912;28;20022;-46
2022/11/10 08:16:04;;;;;;;22.73;7.57;;;11.30;99.90;;;;;;4997364;28;20018;-45
2022/11/10 08:18:30;;;;;;;18.58;6.40;;;11.30;99.90;;;;;;4997638;28;20498;-46
2022/11/10 08:20:56;;;;;;;20.70;7.30;;;11.30;99.90;;;;;;5013033;28;20034;-45
2022/11/10 08:23:21;;;;;;;18.00;7.07;;;11.30;99.90;;;;;;5011176;28;20432;-45
2022/11/10 08:25:51;;;;;;;15.02;6.22;;;11.40;99.90;;;;;;4989001;28;20268;-47
2022/11/10 08:28:18;;;;;;;17.30;6.60;;;11.50;99.90;;;;;;4989036;28;20018;-45
2022/11/10 08:30:45;;;;;;;10.15;5.88;;;11.60;99.90;;;;;;4995879;28;20057;-45
2022/11/10 08:33:13;;;;;;;24.48;7.10;;;11.80;99.90;;;;;;5005239;28;20045;-46
2022/11/10 08:35:41;;;;;;;14.68;5.82;;;12.00;99.90;;;;;;5008393;28;20030;-45
2022/11/10 08:38:23;;;;;;;23.23;7.05;;;12.10;99.90;;;;;;5006968;28;20508;-49
2022/11/10 08:40:49;;;;;;;20.23;6.90;;;12.20;99.90;;;;;;5006525;28;20528;-46
2022/11/10 08:43:15;;;;;;;19.70;6.22;;;12.10;99.90;;;;;;5007367;28;20537;-48
2022/11/10 08:45:43;;;;;;;24.08;5.97;;;12.20;99.90;;;;;;5008282;28;20057;-45
2022/11/10 08:48:17;;;;;;;17.27;5.95;;;12.10;99.90;;;;;;5004927;28;20026;-45
2022/11/10 08:50:43;;;;;;;21.27;6.72;;;12.20;99.90;;;;;;5043218;28;20039;-43
2022/11/10 08:53:14;;;;;;;19.55;6.60;;;12.00;99.90;;;;;;5017178;28;20063;-44
2022/11/10 08:55:40;;;;;;;20.63;6.28;;;12.10;99.90;;;;;;4995386;28;20072;-44
2022/11/10 08:58:07;;;;;;;15.00;5.38;;;12.00;99.90;;;;;;4994732;28;20514;-45
2022/11/10 09:00:33;;;;;;;16.15;6.05;;;12.10;99.90;;;;;;5001521;28;20070;-45
2022/11/10 09:03:05;;;;;;;20.90;5.68;;;12.10;99.90;;;;;;4996621;28;20037;-48
2022/11/10 09:05:31;;;;;;;22.33;5.72;;;12.30;99.90;;;;;;5010972;28;20043;-48
2022/11/10 09:07:56;;;;;;;15.80;6.05;;;12.30;99.90;;;;;;5010551;28;20478;-45
2022/11/10 09:10:23;;;;;;;18.35;5.40;;;12.50;99.90;;;;;;5006945;28;20521;-46
2022/11/10 09:12:48;;;;;;;22.00;6.50;;;12.50;99.90;;;;;;5001467;28;20022;-45
2022/11/10 09:15:14;;;;;;;17.85;6.00;;;12.50;99.90;;;;;;4999137;28;20033;-46
2022/11/10 09:17:40;;;;;;;18.42;5.38;;;12.50;99.90;;;;;;4996993;28;20475;-45
2022/11/10 09:20:07;;;;;;;18.80;5.88;;;12.70;99.90;;;;;;5006787;28;20072;-45
2022/11/10 09:22:36;;;;;;;15.60;5.35;;;12.90;99.90;;;;;;5013843;28;20404;-44
2022/11/10 09:25:02;;;;;;;19.75;4.72;;;13.00;99.90;;;;;;5007682;28;20022;-45
2022/11/10 09:27:28;;;;;;;12.07;4.32;;;13.00;99.90;;;;;;5001021;28;20033;-44
2022/11/10 09:29:53;;;;;;;17.10;4.90;;;13.20;99.90;;;;;;5093179;28;20031;-45
2022/11/10 09:32:19;;;;;;;13.10;4.93;;;13.40;99.90;;;;;;5050732;27;21326;-48
2022/11/10 09:34:44;;;;;;;16.15;5.63;;;13.50;99.90;;;;;;5002529;28;20022;-44
2022/11/10 09:37:10;;;;;;;14.30;4.85;;;13.60;99.90;;;;;;5004423;28;20022;-44
2022/11/10 09:39:36;;;;;;;15.20;5.55;;;13.60;99.90;;;;;;5006389;28;20033;-45
2022/11/10 09:42:05;;;;;;;12.45;5.07;;;13.50;99.90;;;;;;5005534;28;20022;-44
2022/11/10 09:44:37;;;;;;;14.80;4.40;;;13.60;99.90;;;;;;5006442;28;20033;-45
2022/11/10 09:47:14;;;;;;;18.73;4.63;;;13.50;99.90;;;;;;5007356;28;20022;-45
2022/11/10 09:49:55;;;;;;;20.75;5.55;;;13.50;99.90;;;;;;5007449;28;20097;-44
2022/11/10 09:52:22;;;;;;;18.80;5.07;;;13.40;99.90;;;;;;5007015;28;20048;-45
2022/11/10 09:55:03;;;;;;;14.02;4.80;;;13.40;99.90;;;;;;5006067;28;20030;-45
2022/11/10 09:57:29;;;;;;;18.42;4.90;;;13.40;99.90;;;;;;5010504;28;20056;-44
2022/11/10 09:59:55;;;;;;;21.80;4.80;;;13.40;99.90;;;;;;5060100;28;20052;-44
2022/11/10 10:02:31;;;;;;;11.88;4.65;;;13.30;99.90;;;;;;5026647;28;20017;-45
2022/11/10 10:05:24;;;;;;;8.32;4.57;;;13.30;99.90;;;;;;5019908;28;20018;-45
2022/11/10 10:08:10;;;;;;;17.50;5.32;;;13.70;99.90;;;;;;5110535;28;20051;-47
2022/11/10 10:10:41;;;;;;;14.98;3.92;;;14.40;99.90;;;;;;5110571;28;20069;-44
2022/11/10 10:13:25;;;;;;;24.40;4.93;;;15.10;99.90;;;;;;5091726;28;20035;-50
2022/11/10 10:16:03;;;;;;;21.52;4.50;;;15.30;99.90;;;;;;5084669;28;20117;-44
2022/11/10 10:18:53;;;;;;;14.18;4.50;;;15.30;99.90;;;;;;4991911;28;20022;-44
2022/11/10 10:22:03;;;;;;;18.13;4.80;;;15.70;99.90;;;;;;4985826;28;20464;-44
2022/11/10 10:24:31;;;;;;;18.40;4.28;;;16.10;99.90;;;;;;4986846;28;20091;-45
2022/11/10 10:26:59;;;;;;;17.38;4.30;;;16.60;99.90;;;;;;4987565;28;20493;-45
2022/11/10 10:29:31;;;;;;;14.57;3.80;;;17.50;99.90;;;;;;5025933;28;20027;-44
2022/11/10 10:31:59;;;;;;;15.77;4.72;;;17.60;99.90;;;;;;5040531;28;20386;-45
2022/11/10 10:34:33;;;;;;;12.35;3.45;;;17.10;99.90;;;;;;4998981;28;20029;-41
2022/11/10 10:36:59;;;;;;;13.88;4.18;;;17.00;99.90;;;;;;5047710;28;20019;-44
2022/11/10 10:39:47;;;;;;;15.80;4.18;;;16.80;99.90;;;;;;5006786;28;20033;-44
2022/11/10 10:42:31;;;;;;;16.10;4.78;;;17.00;99.90;;;;;;5006832;28;20451;-44
2022/11/10 10:45:16;;;;;;;16.17;4.45;;;16.60;99.90;;;;;;5008257;28;20104;-44
2022/11/10 10:47:42;;;;;;;22.40;4.50;;;16.70;99.90;;;;;;5008148;28;20014;-45
2022/11/10 10:50:24;;;;;;;21.75;4.75;;;16.90;99.90;;;;;;5007826;28;20406;-44
2022/11/10 10:53:22;;;;;;;15.13;3.75;;;17.50;99.90;;;;;;5007342;28;20075;-44
2022/11/10 10:56:11;;;;;;;13.50;3.58;;;17.70;99.90;;;;;;5006798;28;20022;-45
2022/11/10 10:58:52;;;;;;;9.50;4.38;;;17.00;99.90;;;;;;5007600;28;20021;-43
2022/11/10 11:01:31;;;;;;;;;;;16.80;99.90;;;;;;5008539;28;20026;-43
2022/11/10 11:03:57;;;;;;;11.57;3.45;;;16.90;99.90;;;;;;5008181;28;19913;-44
2022/11/10 11:06:31;;;;;;;13.80;4.45;;;16.70;99.90;;;;;;5028047;28;20039;-46
2022/11/10 11:09:14;;;;;;;17.17;4.78;;;16.60;99.90;;;;;;5040880;28;20017;-44
2022/11/10 11:11:42;;;;;;;15.82;3.95;;;16.90;99.90;;;;;;4996635;28;20451;-45
2022/11/10 11:14:22;;;;;;;11.43;3.30;;;18.20;99.20;;;;;;5008462;28;20027;-44
2022/11/10 11:16:51;;;;;;;17.23;3.63;;;18.30;98.70;;;;;;5028444;28;20154;-44
2022/11/10 11:19:23;;;;;;;16.80;4.05;;;19.40;97.60;;;;;;5006195;28;20044;-45
2022/11/10 11:22:06;;;;;;;14.40;3.83;;;20.30;95.50;;;;;;5005195;28;20426;-47
2022/11/10 11:24:50;;;;;;;12.75;3.75;;;21.10;94.00;;;;;;4992894;28;20021;-44
2022/11/10 11:27:25;;;;;;;8.68;3.65;;;21.90;92.40;;;;;;5012466;28;20026;-44
2022/11/10 11:30:02;;;;;;;11.30;3.53;;;22.40;90.00;;;;;;5020596;28;20484;-44
2022/11/10 11:32:46;;;;;;;12.93;3.25;;;22.10;89.00;;;;;;5005307;28;20348;-43
2022/11/10 11:35:35;;;;;;;12.35;3.05;;;22.10;88.20;;;;;;5007626;28;20174;-43
2022/11/10 11:38:12;;;;;;;9.13;2.83;;;22.00;85.90;;;;;;5015061;28;20025;-43
2022/11/10 11:41:15;;;;;;;11.13;3.80;;;21.40;88.10;;;;;;5004083;28;20109;-44
2022/11/10 11:44:06;;;;;;;11.82;3.60;;;21.60;89.00;;;;;;5008761;28;20459;-45
2022/11/10 11:46:34;;;;;;;;;;;22.00;87.70;;;;;;5021662;28;20021;-44
2022/11/10 11:49:23;;;;;;;14.55;3.88;;;22.00;85.90;;;;;;5043138;28;19973;-43
2022/11/10 11:52:16;;;;;;;13.65;3.28;;;21.90;85.10;;;;;;5009748;28;20025;-45
2022/11/10 11:55:06;;;;;;;13.63;3.10;;;21.40;87.30;;;;;;5003136;28;20034;-47
2022/11/10 11:57:50;;;;;;;13.18;3.50;;;20.60;88.00;;;;;;4994087;28;20026;-44
2022/11/10 12:00:17;;;;;;;17.30;3.97;;;19.50;89.90;;;;;;4992598;28;20038;-45
2022/11/10 12:03:11;;;;;;;13.77;3.40;;;19.30;91.70;;;;;;4999904;28;20037;-45
2022/11/10 12:05:58;;;;;;;12.32;2.95;;;19.00;92.70;;;;;;5001349;28;20402;-44
2022/11/10 12:09:05;;;;;;;17.08;3.67;;;19.30;93.00;;;;;;5019324;28;20064;-45
2022/11/10 12:12:13;;;;;;;16.75;3.70;;;19.50;91.80;;;;;;5022939;28;20122;-43
2022/11/10 12:14:59;;;;;;;13.70;3.00;;;19.00;91.20;;;;;;5005876;28;20018;-44
2022/11/10 12:17:51;;;;;;;16.35;3.60;;;18.50;92.70;;;;;;5015397;28;20091;-44
2022/11/10 12:20:16;;;;;;;8.43;2.65;;;18.10;93.10;;;;;;5012772;28;20045;-44
2022/11/10 12:22:53;;;;;;;12.90;3.35;;;17.40;94.60;;;;;;5011029;28;20405;-44
2022/11/10 12:25:44;;;;;;;10.48;3.03;;;17.30;94.20;;;;;;5017454;28;20258;-44
2022/11/10 12:28:24;;;;;;;13.77;3.15;;;17.20;94.40;;;;;;5002482;28;20128;-44
2022/11/10 12:30:54;;;;;;;14.75;3.50;;;17.20;94.10;;;;;;5000843;28;20026;-44
2022/11/10 12:33:40;;;;;;;13.00;3.28;;;17.00;95.10;;;;;;5006303;28;20041;-44
2022/11/10 12:36:10;;;;;;;18.50;3.40;;;17.10;94.50;;;;;;5043546;28;20026;-44
2022/11/10 12:38:36;;;;;;;13.82;3.05;;;17.50;94.30;;;;;;5015138;28;20029;-45
2022/11/10 12:41:09;;;;;;;11.55;3.67;;;17.50;94.10;;;;;;5005242;28;20031;-44
2022/11/10 12:43:46;;;;;;;11.52;2.97;;;17.70;94.10;;;;;;5005952;28;20063;-43
2022/11/10 12:46:12;;;;;;;13.43;2.95;;;17.60;94.10;;;;;;5011559;28;20030;-43
2022/11/10 12:48:54;;;;;;;14.20;3.63;;;17.60;94.20;;;;;;5009343;28;20025;-44
2022/11/10 12:51:31;;;;;;;16.65;4.03;;;17.40;95.00;;;;;;5022514;28;20056;-44
2022/11/10 12:53:57;;;;;;;10.50;2.88;;;17.40;95.20;;;;;;5057469;28;20026;-45
2022/11/10 12:56:39;;;;;;;18.02;3.22;;;17.40;95.40;;;;;;5000166;28;20026;-45
2022/11/10 12:59:27;;;;;;;17.00;3.35;;;17.30;96.50;;;;;;5002149;28;20115;-43
2022/11/10 13:02:01;;;;;;;9.68;3.03;;;17.20;96.70;;;;;;4994838;28;20026;-44
2022/11/10 13:04:27;;;;;;;13.00;3.53;;;17.00;96.70;;;;;;5007332;28;20022;-44
2022/11/10 13:07:00;;;;;;;13.80;3.10;;;17.10;96.50;;;;;;5096411;28;20047;-44